Time;durP1;ratioP1;P1;durP2;ratioP2;P2;SDS_P1;SDS_P2;PMS_P1;PMS_P2;Temp;Humidity;BMP_temperature;BMP_pressure;BME280_temperature;BME280_humidity;BME280_pressure;Samples;Min_cycle;Max_cycle;Signal;HPM_P1;HPM_P2
2021/12/22 00:00:51;;;;;;;43.78;22.60;;;-0.80;99.90;;;-3.42;100.00;101579.44;5028445;28;20119;-84
2021/12/22 00:03:18;;;;;;;42.50;21.55;;;-0.80;99.90;;;-3.42;100.00;101590.09;5027471;28;20049;-84
2021/12/22 00:05:47;;;;;;;44.67;22.08;;;-0.80;99.90;;;-3.45;100.00;101583.06;5029828;22;20391;-87
2021/12/22 00:08:17;;;;;;;43.33;22.05;;;-0.80;99.90;;;-3.54;100.00;101579.06;4988826;28;20053;-89
2021/12/22 00:10:47;;;;;;;41.13;20.75;;;-0.90;99.90;;;-3.60;100.00;101579.31;4988564;28;20130;-87
2021/12/22 00:13:14;;;;;;;42.22;21.63;;;-0.90;99.90;;;-3.68;100.00;101592.06;4970499;28;20589;-86
2021/12/22 00:15:46;;;;;;;43.13;20.80;;;-0.90;99.90;;;-3.68;100.00;101594.72;4985101;28;20126;-86
2021/12/22 00:18:13;;;;;;;42.40;20.27;;;-0.90;99.90;;;-3.63;100.00;101584.78;4978797;28;21002;-87
2021/12/22 00:20:41;;;;;;;43.65;20.40;;;-0.90;99.90;;;-3.64;100.00;101585.69;4979627;28;20053;-87
2021/12/22 00:23:08;;;;;;;38.38;19.92;;;-0.90;99.90;;;-3.73;100.00;101594.09;4978606;28;20151;-86
2021/12/22 00:25:35;;;;;;;39.45;20.42;;;-0.90;99.90;;;-3.70;100.00;101587.75;4978544;28;20508;-87
2021/12/22 00:28:03;;;;;;;38.83;20.58;;;-0.90;99.90;;;-3.68;100.00;101584.09;4961145;28;20759;-87
2021/12/22 00:30:30;;;;;;;41.42;20.33;;;-0.90;99.90;;;-3.64;100.00;101588.34;4961286;28;20046;-87
2021/12/22 00:33:05;;;;;;;37.78;18.80;;;-0.90;99.90;;;-3.66;100.00;101587.56;4960796;28;20055;-87
2021/12/22 00:35:40;;;;;;;36.80;19.20;;;-0.90;99.90;;;-3.65;100.00;101581.31;4978992;28;20051;-86
2021/12/22 00:38:09;;;;;;;35.83;19.23;;;-1.00;99.90;;;-3.69;100.00;101577.06;4978114;28;20472;-86
2021/12/22 00:40:37;;;;;;;33.13;19.35;;;-0.90;99.90;;;-3.64;100.00;101583.03;4960840;28;20478;-86
2021/12/22 00:43:05;;;;;;;35.40;18.77;;;-1.00;99.90;;;-3.76;100.00;101594.22;4978572;28;20046;-86
2021/12/22 00:45:35;;;;;;;36.13;18.92;;;-1.00;99.80;;;-3.87;100.00;101586.69;4977939;28;20046;-87
2021/12/22 00:48:05;;;;;;;32.22;17.92;;;-1.00;99.50;;;-3.85;100.00;101597.25;4978096;28;20046;-87
2021/12/22 00:50:34;;;;;;;34.45;18.83;;;-1.10;99.60;;;-3.90;100.00;101593.91;4978130;28;20109;-87
2021/12/22 00:53:02;;;;;;;34.65;18.38;;;-1.10;99.40;;;-3.91;100.00;101594.88;4977916;28;20499;-87
2021/12/22 00:55:29;;;;;;;36.50;19.55;;;-1.10;99.20;;;-3.87;100.00;101592.00;4978677;28;20078;-87
2021/12/22 00:57:57;;;;;;;34.13;18.38;;;-1.10;99.40;;;-3.89;100.00;101587.69;4979042;28;20569;-88
2021/12/22 01:00:27;;;;;;;36.00;18.92;;;-1.10;99.30;;;-3.99;100.00;101580.09;4978391;28;20129;-87
2021/12/22 01:02:55;;;;;;;32.47;17.23;;;-1.20;99.10;;;-3.99;100.00;101582.75;4977927;28;20132;-87
2021/12/22 01:05:24;;;;;;;34.83;19.08;;;-1.20;99.20;;;-3.94;100.00;101580.78;4977999;28;20631;-87
2021/12/22 01:07:52;;;;;;;36.03;19.00;;;-1.20;99.40;;;-3.94;100.00;101574.59;4980111;28;20062;-88
2021/12/22 01:10:27;;;;;;;35.33;18.77;;;-1.20;99.20;;;-3.90;100.00;101584.16;4981742;28;20050;-88
2021/12/22 01:12:57;;;;;;;34.35;17.73;;;-1.20;99.20;;;-4.06;100.00;101581.28;4982154;28;20074;-89
2021/12/22 01:15:26;;;;;;;38.40;19.77;;;-1.30;99.10;;;-4.06;100.00;101581.28;4965599;28;20058;-87
2021/12/22 01:18:03;;;;;;;38.85;19.42;;;-1.30;99.30;;;-4.09;100.00;101580.53;4982324;28;20122;-87
2021/12/22 01:20:37;;;;;;;34.00;18.38;;;-1.30;99.00;;;-4.10;100.00;101579.69;4981399;28;20133;-87
2021/12/22 01:23:06;;;;;;;39.88;18.90;;;-1.30;99.00;;;-4.04;100.00;101584.72;4982024;28;20355;-87
2021/12/22 01:25:37;;;;;;;35.42;18.40;;;-1.30;99.50;;;-4.12;100.00;101581.53;4982217;28;20109;-87
2021/12/22 01:28:05;;;;;;;34.22;18.35;;;-1.30;99.20;;;-4.10;100.00;101590.31;4964667;28;20049;-86
2021/12/22 01:30:33;;;;;;;36.15;18.77;;;-1.30;99.00;;;-4.08;100.00;101592.91;4980823;28;20492;-87
2021/12/22 01:33:03;;;;;;;35.55;18.85;;;-1.40;98.80;;;-4.17;100.00;101602.13;4981567;28;20055;-88
2021/12/22 01:35:34;;;;;;;34.67;19.20;;;-1.40;98.80;;;-4.22;100.00;101596.16;4981999;28;20105;-87
2021/12/22 01:38:02;;;;;;;;;;;-1.40;98.70;;;-4.20;100.00;101588.97;4983564;28;20122;-88
2021/12/22 01:40:30;;;;;;;38.00;18.92;;;-1.40;98.60;;;-4.23;100.00;101599.72;4981842;28;19930;-87
2021/12/22 01:42:58;;;;;;;36.03;19.20;;;-1.50;98.90;;;-4.35;100.00;101585.16;4981735;28;20066;-87
2021/12/22 01:45:52;;;;;;;34.17;18.10;;;-1.50;98.70;;;-4.35;100.00;101586.00;4977691;28;20062;-86
2021/12/22 01:51:26;;;;;;;35.47;18.63;;;-1.50;98.90;;;-4.26;100.00;101594.56;4981388;28;20128;-87
2021/12/22 01:54:00;;;;;;;35.53;19.08;;;-1.50;98.90;;;-4.23;100.00;101607.69;4982050;28;20042;-87
2021/12/22 01:56:30;;;;;;;33.10;19.05;;;-1.50;99.10;;;-4.29;100.00;101603.50;4981562;28;20082;-88
2021/12/22 01:59:01;;;;;;;37.45;18.90;;;-1.50;99.20;;;-4.34;100.00;101608.13;4964227;28;20153;-88
2021/12/22 02:01:32;;;;;;;33.50;18.60;;;-1.60;99.00;;;-4.41;100.00;101611.97;4981443;28;20073;-87
2021/12/22 02:04:00;;;;;;;33.22;18.33;;;-1.60;98.90;;;-4.42;100.00;101611.09;4964340;28;20046;-87
2021/12/22 02:06:29;;;;;;;32.60;18.00;;;-1.60;98.90;;;-4.41;100.00;101611.97;4981121;28;20061;-87
2021/12/22 02:08:58;;;;;;;33.35;17.50;;;-1.60;98.80;;;-4.35;100.00;101612.56;4963000;28;20058;-88
2021/12/22 02:11:26;;;;;;;35.22;17.98;;;-1.60;98.70;;;-4.41;100.00;101612.84;4980812;28;20070;-87
2021/12/22 02:13:58;;;;;;;33.03;18.35;;;-1.60;98.80;;;-4.43;100.00;101609.38;4981401;28;20081;-87
2021/12/22 02:16:29;;;;;;;33.35;17.85;;;-1.60;98.90;;;-4.49;100.00;101614.94;4981107;28;20050;-87
2021/12/22 02:18:58;;;;;;;32.20;16.90;;;-1.60;98.70;;;-4.54;100.00;101607.13;4980912;28;20133;-87
2021/12/22 02:21:32;;;;;;;34.17;18.00;;;-1.60;98.50;;;-4.54;100.00;101606.28;4980967;28;20120;-87
2021/12/22 02:24:00;;;;;;;32.95;17.75;;;-1.60;98.50;;;-4.49;100.00;101599.00;4963301;28;20097;-87
2021/12/22 02:26:34;;;;;;;33.50;17.58;;;-1.60;98.60;;;-4.51;100.00;101590.22;4980951;28;20054;-87
2021/12/22 02:29:05;;;;;;;34.67;18.02;;;-1.60;98.70;;;-4.44;100.00;101594.34;4981175;28;20049;-88
2021/12/22 02:31:40;;;;;;;38.20;18.10;;;-1.70;98.70;;;-4.39;100.00;101597.69;4980891;28;20035;-87
2021/12/22 02:34:14;;;;;;;34.63;18.20;;;-1.70;98.70;;;-4.40;100.00;101589.78;4980903;28;20050;-87
2021/12/22 02:36:44;;;;;;;33.50;18.13;;;-1.70;98.80;;;-4.49;100.00;101582.16;4962685;28;20152;-88
2021/12/22 02:39:12;;;;;;;31.63;17.02;;;-1.70;98.70;;;-4.52;100.00;101588.47;4962994;28;20511;-86
2021/12/22 02:41:40;;;;;;;33.80;17.40;;;-1.70;98.80;;;-4.49;100.00;101590.13;4980162;28;20058;-87
2021/12/22 02:44:10;;;;;;;32.28;17.33;;;-1.70;98.80;;;-4.46;100.00;101585.56;4980474;28;20047;-87
2021/12/22 02:46:39;;;;;;;33.65;17.27;;;-1.70;98.80;;;-4.44;100.00;101585.53;4980322;28;20051;-87
2021/12/22 02:49:09;;;;;;;32.95;18.00;;;-1.70;98.80;;;-4.42;100.00;101581.00;4980108;28;20427;-87
2021/12/22 02:51:38;;;;;;;36.00;17.52;;;-1.70;98.50;;;-4.53;100.00;101587.63;4962585;28;20047;-87
2021/12/22 02:54:12;;;;;;;35.80;18.33;;;-1.80;98.40;;;-4.49;100.00;101582.16;4981027;28;20046;-87
2021/12/22 02:56:52;;;;;;;32.35;16.98;;;-1.70;98.50;;;-4.52;100.00;101583.16;4980535;28;20102;-87
2021/12/22 02:59:45;;;;;;;33.17;17.55;;;-1.80;98.60;;;-4.60;100.00;101575.50;4962876;28;20073;-88
2021/12/22 03:02:29;;;;;;;32.63;17.15;;;-1.80;98.30;;;-4.66;100.00;101582.84;4961506;28;20046;-88
2021/12/22 03:04:58;;;;;;;31.40;17.30;;;-1.80;98.10;;;-4.64;100.00;101583.66;4979701;28;20112;-88
2021/12/22 03:07:29;;;;;;;34.35;16.92;;;-1.90;98.00;;;-4.64;100.00;101584.53;4980420;28;20053;-87
2021/12/22 03:10:01;;;;;;;33.63;17.33;;;-1.80;98.10;;;-4.72;100.00;101576.88;4980255;28;20129;-88
2021/12/22 03:12:34;;;;;;;34.25;17.95;;;-1.90;98.20;;;-4.71;100.00;101583.03;4979880;28;20109;-87
2021/12/22 03:15:02;;;;;;;34.38;17.55;;;-1.90;98.30;;;-4.61;100.00;101583.53;4980503;28;20042;-87
2021/12/22 03:17:29;;;;;;;33.17;18.70;;;-1.90;98.50;;;-4.62;100.00;101579.16;4979322;28;20125;-88
2021/12/22 03:19:56;;;;;;;33.83;17.35;;;-2.00;98.30;;;-4.69;100.00;101575.00;4980008;28;20120;-87
2021/12/22 03:22:24;;;;;;;31.77;17.65;;;-1.90;98.50;;;-4.69;100.00;101580.31;4980102;28;20506;-87
2021/12/22 03:24:52;;;;;;;31.30;16.85;;;-1.90;98.30;;;-4.76;100.00;101580.56;4979140;28;20038;-88
2021/12/22 03:27:22;;;;;;;34.42;17.83;;;-1.90;98.40;;;-4.72;100.00;101576.88;4980052;28;20463;-88
2021/12/22 03:29:50;;;;;;;32.17;17.17;;;-2.00;98.20;;;-4.72;100.00;101576.88;4980436;28;20129;-87
2021/12/22 03:32:17;;;;;;;30.00;17.42;;;-1.90;98.20;;;-4.58;100.00;101572.81;4978836;28;20196;-87
2021/12/22 03:34:45;;;;;;;31.52;16.88;;;-1.90;98.70;;;-4.56;100.00;101568.28;4979891;28;20440;-88
2021/12/22 03:37:13;;;;;;;32.22;16.33;;;-1.80;98.50;;;-4.66;100.00;101565.13;4961731;28;20081;-87
2021/12/22 03:39:40;;;;;;;28.75;16.17;;;-2.00;98.20;;;-4.73;100.00;101564.50;4979030;28;20042;-86
2021/12/22 03:42:10;;;;;;;34.10;17.05;;;-2.00;98.40;;;-4.69;100.00;101572.34;4978853;28;20050;-87
2021/12/22 03:44:39;;;;;;;30.05;16.67;;;-2.00;98.30;;;-4.75;100.00;101561.03;4977191;28;20133;-88
2021/12/22 03:47:07;;;;;;;33.90;16.35;;;-2.00;98.30;;;-4.68;100.00;101571.41;4978337;28;20137;-87
2021/12/22 03:49:35;;;;;;;32.28;16.15;;;-2.00;98.20;;;-4.65;100.00;101566.84;4979324;28;20049;-87
2021/12/22 03:52:04;;;;;;;30.02;16.45;;;-1.90;98.50;;;-4.67;100.00;101568.69;4978869;28;20515;-88
2021/12/22 03:54:32;;;;;;;32.42;16.38;;;-2.00;98.50;;;-4.73;100.00;101564.50;4979156;28;20073;-87
2021/12/22 03:56:59;;;;;;;33.17;16.60;;;-2.10;98.40;;;-4.67;100.00;101578.47;4977156;28;20128;-88
2021/12/22 03:59:26;;;;;;;30.15;16.50;;;-2.10;98.50;;;-4.65;100.00;101579.28;4978934;28;20046;-87
2021/12/22 04:01:55;;;;;;;32.15;17.08;;;-2.00;98.30;;;-4.75;100.00;101571.66;4979571;28;20054;-88
2021/12/22 04:04:23;;;;;;;32.97;17.17;;;-2.10;98.20;;;-4.75;100.00;101571.66;4979104;28;20100;-88
2021/12/22 04:06:51;;;;;;;30.33;16.60;;;-2.00;98.40;;;-4.69;100.00;101575.00;4977727;28;20141;-87
2021/12/22 04:09:26;;;;;;;30.65;16.77;;;-2.00;98.30;;;-4.78;100.00;101568.25;4979073;28;20042;-87
2021/12/22 04:11:53;;;;;;;31.23;17.25;;;-2.10;98.20;;;-4.74;100.00;101573.41;4979042;28;20082;-88
2021/12/22 04:14:20;;;;;;;30.65;16.25;;;-2.10;98.50;;;-4.76;100.00;101585.00;4978443;28;20108;-87
2021/12/22 04:16:48;;;;;;;30.65;16.45;;;-2.10;98.30;;;-4.81;100.00;101586.97;4978405;28;20153;-87
2021/12/22 04:19:17;;;;;;;30.80;15.93;;;-2.10;98.30;;;-4.89;100.00;101589.94;4979083;28;20125;-87
2021/12/22 04:21:48;;;;;;;34.05;16.40;;;-2.10;98.30;;;-4.86;100.00;101592.47;4978970;28;20573;-87
2021/12/22 04:24:16;;;;;;;30.45;16.15;;;-2.10;98.20;;;-4.82;100.00;101586.09;4979234;28;20076;-88
2021/12/22 04:26:43;;;;;;;31.27;16.92;;;-2.10;98.40;;;-4.77;100.00;101602.72;4978057;28;20050;-88
2021/12/22 04:29:11;;;;;;;31.90;16.45;;;-2.10;98.30;;;-4.84;100.00;101587.94;4978721;28;20047;-88
2021/12/22 04:31:39;;;;;;;33.05;15.88;;;-2.10;98.60;;;-4.88;100.00;101594.31;4977695;28;20050;-88
2021/12/22 04:34:08;;;;;;;30.60;16.38;;;-2.10;98.30;;;-4.84;100.00;101601.22;4978999;28;20050;-87
2021/12/22 04:36:37;;;;;;;29.10;16.20;;;-2.10;98.40;;;-4.84;100.00;101600.38;4978519;28;20050;-88
2021/12/22 04:39:06;;;;;;;30.70;16.83;;;-2.10;98.30;;;-4.85;100.00;101601.31;4978157;28;20414;-87
2021/12/22 04:41:34;;;;;;;32.03;16.58;;;-2.10;98.30;;;-4.88;100.00;101586.34;4977343;28;20074;-86
2021/12/22 04:44:02;;;;;;;31.48;15.30;;;-2.10;98.30;;;-4.83;100.00;101600.31;4977810;28;20034;-89
2021/12/22 04:46:29;;;;;;;30.88;15.48;;;-2.10;98.10;;;-4.75;100.00;101600.00;4978363;28;20042;-80
2021/12/22 04:48:56;;;;;;;29.40;15.35;;;-2.10;98.30;;;-4.76;100.00;101596.50;4979036;28;20109;-83
2021/12/22 04:51:26;;;;;;;29.65;15.75;;;-2.10;98.50;;;-4.79;100.00;101604.56;4978624;28;20073;-82
2021/12/22 04:54:02;;;;;;;28.55;15.85;;;-2.10;98.30;;;-4.80;100.00;101599.31;4978443;28;20042;-82
2021/12/22 04:56:29;;;;;;;30.25;16.25;;;-2.10;98.60;;;-4.80;100.00;101594.88;4978448;28;20117;-82
2021/12/22 04:58:56;;;;;;;27.85;15.80;;;-2.10;98.50;;;-4.76;100.00;101596.50;4977566;28;20610;-84
2021/12/22 05:01:24;;;;;;;30.73;16.00;;;-2.20;98.50;;;-4.78;100.00;101587.72;4960796;28;20141;-82
2021/12/22 05:03:51;;;;;;;29.42;15.50;;;-2.10;98.80;;;-4.73;100.00;101591.06;4978884;28;20046;-83
2021/12/22 05:06:18;;;;;;;30.13;15.68;;;-2.10;98.80;;;-4.78;100.00;101587.72;4977703;28;20127;-82
2021/12/22 05:08:45;;;;;;;31.35;16.00;;;-2.10;98.60;;;-4.82;100.00;101583.44;4978740;28;20129;-82
2021/12/22 05:11:14;;;;;;;30.13;14.90;;;-2.10;98.40;;;-4.82;100.00;101585.25;4978020;28;20053;-82
2021/12/22 05:13:41;;;;;;;28.38;15.45;;;-2.10;98.30;;;-4.76;100.00;101580.56;4978524;28;20086;-83
2021/12/22 05:16:16;;;;;;;29.15;15.80;;;-2.10;98.50;;;-4.84;100.00;101572.00;4978022;28;20414;-83
2021/12/22 05:18:57;;;;;;;28.50;14.85;;;-2.20;98.10;;;-4.86;100.00;101571.22;4978707;28;20244;-82
2021/12/22 05:21:24;;;;;;;;;;;-2.20;98.30;;;-4.85;100.00;101574.75;4977938;28;20506;-83
2021/12/22 05:23:52;;;;;;;28.27;15.65;;;-2.20;97.80;;;-4.87;100.00;101572.16;4978154;28;19937;-83
2021/12/22 05:26:23;;;;;;;28.88;15.50;;;-2.20;98.00;;;-4.88;100.00;101575.72;4977178;28;20046;-82
2021/12/22 05:28:50;;;;;;;32.65;15.73;;;-2.20;98.10;;;-4.97;100.00;101566.34;4977545;28;20478;-82
2021/12/22 05:31:23;;;;;;;27.98;15.65;;;-2.20;97.90;;;-5.00;100.00;101576.22;4978194;28;20062;-83
2021/12/22 05:33:51;;;;;;;29.52;14.35;;;-2.20;97.80;;;-5.00;100.00;101582.38;4978286;28;20050;-82
2021/12/22 05:36:19;;;;;;;29.08;15.05;;;-2.30;98.00;;;-4.99;100.00;101578.81;4978124;28;20045;-83
2021/12/22 05:38:46;;;;;;;32.90;15.10;;;-2.30;98.00;;;-5.02;100.00;101578.06;4977258;28;20129;-83
2021/12/22 05:41:13;;;;;;;27.85;15.43;;;-2.30;97.90;;;-5.05;100.00;101578.16;4978053;28;20574;-82
2021/12/22 05:43:42;;;;;;;30.05;15.40;;;-2.30;97.90;;;-5.05;100.00;101578.16;4977883;28;20046;-82
2021/12/22 05:46:10;;;;;;;27.30;14.60;;;-2.30;97.90;;;-5.05;100.00;101573.72;4974622;28;20041;-82
2021/12/22 05:48:37;;;;;;;29.27;15.25;;;-2.30;98.00;;;-5.04;100.00;101570.16;4977213;28;20522;-82
2021/12/22 05:51:04;;;;;;;27.38;15.05;;;-2.30;98.10;;;-5.01;100.00;101555.88;4977666;28;20074;-83
2021/12/22 05:53:32;;;;;;;26.48;15.13;;;-2.30;98.20;;;-5.03;100.00;101552.44;4979268;28;20126;-82
2021/12/22 05:56:00;;;;;;;26.88;14.55;;;-2.30;98.00;;;-5.01;100.00;101547.91;4981039;28;20141;-82
2021/12/22 05:58:28;;;;;;;27.85;15.43;;;-2.30;98.00;;;-4.99;100.00;101551.38;4964018;28;20050;-83
2021/12/22 06:00:57;;;;;;;31.75;15.27;;;-2.30;98.00;;;-4.95;100.00;101555.63;4981048;28;20058;-84
2021/12/22 06:03:24;;;;;;;30.27;15.35;;;-2.30;98.10;;;-4.96;100.00;101540.66;4980496;28;20173;-82
2021/12/22 06:05:51;;;;;;;29.20;15.05;;;-2.30;98.30;;;-4.97;100.00;101549.53;4999179;22;20439;-80
2021/12/22 06:08:19;;;;;;;29.35;14.60;;;-2.30;98.10;;;-4.94;100.00;101552.06;5009076;28;20139;-81
2021/12/22 06:10:46;;;;;;;29.30;14.77;;;-2.30;98.20;;;-4.93;100.00;101553.78;5010357;28;20041;-80
2021/12/22 06:13:13;;;;;;;28.45;15.30;;;-2.30;98.10;;;-4.92;100.00;101547.56;5010405;28;20572;-80
2021/12/22 06:15:41;;;;;;;27.10;15.55;;;-2.30;98.20;;;-4.94;100.00;101539.66;5010389;28;20133;-81
2021/12/22 06:18:10;;;;;;;28.67;15.43;;;-2.30;98.30;;;-4.96;100.00;101548.63;5010494;28;20056;-79
2021/12/22 06:20:37;;;;;;;29.77;15.18;;;-2.30;98.30;;;-4.97;100.00;101546.88;5010059;28;20155;-79
2021/12/22 06:23:05;;;;;;;29.58;15.65;;;-2.30;98.20;;;-4.93;100.00;101540.50;5010554;28;20133;-79
2021/12/22 06:25:32;;;;;;;28.70;15.35;;;-2.30;98.10;;;-4.95;100.00;101542.38;5009809;28;20070;-79
2021/12/22 06:28:00;;;;;;;25.52;15.05;;;-2.30;98.10;;;-4.97;100.00;101526.53;5010466;28;20459;-79
2021/12/22 06:30:27;;;;;;;29.95;15.30;;;-2.20;98.20;;;-4.95;100.00;101532.63;5009670;28;20141;-78
2021/12/22 06:32:54;;;;;;;30.30;15.98;;;-2.30;98.30;;;-4.95;100.00;101529.09;5009558;28;20054;-81
2021/12/22 06:35:23;;;;;;;25.75;14.77;;;-2.20;98.50;;;-4.97;100.00;101534.50;5010411;28;20482;-79
2021/12/22 06:37:51;;;;;;;28.90;15.15;;;-2.30;98.30;;;-4.99;100.00;101539.00;5010088;28;20045;-87
2021/12/22 06:40:19;;;;;;;29.98;15.20;;;-2.30;98.40;;;-4.96;100.00;101535.34;5009619;28;20163;-76
2021/12/22 06:42:46;;;;;;;26.73;14.63;;;-2.30;98.30;;;-4.94;100.00;101529.03;5010120;28;20142;-76
2021/12/22 06:45:15;;;;;;;31.08;15.73;;;-2.30;98.40;;;-4.95;100.00;101542.38;5008376;28;20057;-76
2021/12/22 06:47:43;;;;;;;32.75;16.33;;;-2.30;98.40;;;-4.97;100.00;101536.25;5009972;28;20149;-76
2021/12/22 06:50:12;;;;;;;29.80;15.20;;;-2.30;98.50;;;-4.96;100.00;101544.16;5009661;28;20128;-76
2021/12/22 06:52:41;;;;;;;29.92;15.27;;;-2.30;98.60;;;-4.94;100.00;101539.66;5008979;28;20080;-76
2021/12/22 06:55:09;;;;;;;29.25;15.20;;;-2.30;98.40;;;-4.94;100.00;101537.00;5009843;28;20045;-76
2021/12/22 06:57:36;;;;;;;29.95;15.57;;;-2.30;98.20;;;-4.95;100.00;101531.75;5009354;28;20046;-76
2021/12/22 07:00:08;;;;;;;27.92;15.52;;;-2.30;98.50;;;-4.89;100.00;101528.88;5009616;28;20243;-76
2021/12/22 07:02:37;;;;;;;26.45;14.55;;;-2.30;98.70;;;-4.89;100.00;101520.91;5008919;28;20125;-76
2021/12/22 07:05:08;;;;;;;33.60;16.23;;;-2.30;98.60;;;-4.93;100.00;101520.16;5009573;28;20053;-76
2021/12/22 07:07:37;;;;;;;29.63;15.27;;;-2.30;98.50;;;-4.92;100.00;101521.03;5008986;28;20565;-76
2021/12/22 07:10:10;;;;;;;32.58;16.60;;;-2.30;98.50;;;-4.95;100.00;101508.75;4991450;28;20050;-76
2021/12/22 07:12:40;;;;;;;30.55;15.43;;;-2.30;98.50;;;-4.95;100.00;101515.81;5008647;28;20120;-76
2021/12/22 07:15:09;;;;;;;32.33;17.20;;;-2.30;98.40;;;-4.92;100.00;101505.09;5008804;28;20541;-76
2021/12/22 07:17:37;;;;;;;31.92;16.88;;;-2.30;98.50;;;-4.92;100.00;101502.44;5009089;28;20050;-76
2021/12/22 07:20:06;;;;;;;33.20;17.65;;;-2.30;98.40;;;-4.94;100.00;101502.50;5008626;28;20050;-76
2021/12/22 07:22:33;;;;;;;31.40;16.65;;;-2.30;98.40;;;-4.88;100.00;101501.38;5008251;28;20072;-76
2021/12/22 07:25:00;;;;;;;38.20;16.50;;;-2.30;98.60;;;-4.87;100.00;101496.94;5008792;28;20649;-76
2021/12/22 07:27:31;;;;;;;31.98;16.73;;;-2.20;98.60;;;-4.89;100.00;101502.31;5008599;28;20046;-76
2021/12/22 07:29:58;;;;;;;32.38;16.80;;;-2.30;98.40;;;-4.87;100.00;101505.78;5009259;28;20168;-76
2021/12/22 07:32:26;;;;;;;30.88;17.15;;;-2.20;98.70;;;-4.86;100.00;101509.28;5008628;28;20128;-76
2021/12/22 07:35:07;;;;;;;35.22;17.67;;;-2.30;98.50;;;-4.89;100.00;101510.28;5009351;28;20481;-76
2021/12/22 07:37:47;;;;;;;37.88;17.65;;;-2.30;98.30;;;-4.93;100.00;101509.56;5008502;28;20124;-76
2021/12/22 07:40:19;;;;;;;34.72;18.15;;;-2.30;98.40;;;-4.85;100.00;101516.34;5009093;28;20044;-76
2021/12/22 07:42:48;;;;;;;32.92;17.67;;;-2.30;98.70;;;-4.84;100.00;101515.41;5008150;28;20052;-76
2021/12/22 07:45:15;;;;;;;35.35;18.13;;;-2.20;98.90;;;-4.84;100.00;101510.94;5006020;28;20565;-76
2021/12/22 07:47:42;;;;;;;34.03;17.50;;;-2.20;99.00;;;-4.76;100.00;101516.84;5007355;28;20046;-76
2021/12/22 07:50:11;;;;;;;38.72;18.77;;;-2.20;99.20;;;-4.67;100.00;101510.28;5008580;28;20080;-77
2021/12/22 07:52:38;;;;;;;34.35;18.02;;;-2.20;99.50;;;-4.61;100.00;101504.72;5008117;28;20044;-76
2021/12/22 07:55:07;;;;;;;40.13;18.85;;;-2.10;99.80;;;-4.52;100.00;101514.97;5008169;28;20049;-76
2021/12/22 07:57:34;;;;;;;37.20;17.98;;;-2.10;99.90;;;-4.45;100.00;101510.28;5006268;28;20107;-76
2021/12/22 08:00:04;;;;;;;37.65;19.38;;;-2.10;99.90;;;-4.42;100.00;101511.94;5008598;28;20487;-76
2021/12/22 08:02:40;;;;;;;33.13;19.00;;;-2.00;99.90;;;-4.43;100.00;101505.75;5007843;28;20092;-77
2021/12/22 08:05:09;;;;;;;38.53;18.73;;;-2.00;99.50;;;-4.44;100.00;101508.47;5003463;28;20121;-76
2021/12/22 08:07:36;;;;;;;34.78;19.90;;;-2.00;99.70;;;-4.36;100.00;101516.97;5007646;28;20129;-76
2021/12/22 08:10:08;;;;;;;39.88;19.50;;;-2.00;99.80;;;-4.32;100.00;101524.78;5008561;28;20048;-77
2021/12/22 08:12:36;;;;;;;39.80;19.63;;;-1.90;99.80;;;-4.38;100.00;101522.38;5007213;28;20088;-77
2021/12/22 08:15:06;;;;;;;42.83;20.52;;;-2.00;99.30;;;-4.36;100.00;101533.81;5008030;28;20046;-77
2021/12/22 08:17:34;;;;;;;36.93;21.13;;;-1.90;99.60;;;-4.35;100.00;101535.53;5007671;28;20046;-76
2021/12/22 08:20:02;;;;;;;41.65;23.98;;;-1.90;99.60;;;-4.36;100.00;101533.81;5007792;28;20046;-76
2021/12/22 08:22:29;;;;;;;54.15;30.55;;;-1.90;99.60;;;-4.30;100.00;101539.78;5008069;28;20052;-77
2021/12/22 08:24:56;;;;;;;55.08;30.52;;;-1.90;99.60;;;-4.20;100.00;101541.13;5007456;28;20042;-76
2021/12/22 08:27:24;;;;;;;61.20;32.90;;;-1.80;99.90;;;-4.13;100.00;101537.31;4988840;28;20140;-77
2021/12/22 08:29:52;;;;;;;64.00;35.17;;;-1.80;99.90;;;-4.12;100.00;101539.88;5004759;28;20675;-78
2021/12/22 08:32:21;;;;;;;63.78;32.92;;;-1.80;99.90;;;-4.04;100.00;101536.03;5007731;28;20042;-77
2021/12/22 08:34:53;;;;;;;62.53;31.88;;;-1.70;99.90;;;-3.95;100.00;101533.84;5007705;28;20052;-78
2021/12/22 08:40:09;;;;;;;52.47;30.23;;;-1.60;99.90;;;-3.90;100.00;101527.44;5006007;28;20048;-77
2021/12/22 08:42:36;;;;;;;49.55;27.67;;;-1.60;99.90;;;-3.90;100.00;101512.38;5005002;28;20129;-77
2021/12/22 08:45:06;;;;;;;46.45;26.30;;;-1.60;99.90;;;-3.87;100.00;101512.22;5004489;28;20112;-77
2021/12/22 08:47:35;;;;;;;46.95;25.80;;;-1.50;99.90;;;-3.88;100.00;101512.28;5006574;28;20053;-77
2021/12/22 08:50:02;;;;;;;45.83;24.90;;;-1.50;99.90;;;-3.81;100.00;101505.78;5007697;28;20103;-77
2021/12/22 08:52:30;;;;;;;45.70;24.02;;;-1.50;99.90;;;-3.73;100.00;101508.97;5003527;28;20046;-77
2021/12/22 08:54:57;;;;;;;42.97;22.73;;;-1.40;99.90;;;-3.67;100.00;101511.34;5005609;28;21684;-77
2021/12/22 08:57:25;;;;;;;47.15;26.13;;;-1.40;99.90;;;-3.62;100.00;101511.13;5006026;28;20524;-77
2021/12/22 08:59:53;;;;;;;47.72;26.52;;;-1.40;99.90;;;-3.58;100.00;101512.72;5006805;28;20483;-77
2021/12/22 09:02:21;;;;;;;45.20;24.92;;;-1.30;99.90;;;-3.57;100.00;101509.16;5006244;28;20056;-77
2021/12/22 09:04:50;;;;;;;38.58;22.08;;;-1.30;99.90;;;-3.49;100.00;101506.13;4989972;28;20127;-77
2021/12/22 09:07:17;;;;;;;45.65;24.00;;;-1.30;99.90;;;-3.45;100.00;101505.06;4989652;28;20443;-77
2021/12/22 09:09:45;;;;;;;48.72;24.80;;;-1.30;99.90;;;-3.41;100.00;101503.97;5007803;28;20042;-77
2021/12/22 09:12:12;;;;;;;42.78;23.23;;;-1.20;99.90;;;-3.30;100.00;101507.00;4988176;28;20498;-77
2021/12/22 09:14:39;;;;;;;42.63;23.00;;;-1.10;99.90;;;-3.23;100.00;101503.13;5006627;28;20057;-80
2021/12/22 09:17:06;;;;;;;42.53;22.88;;;-1.10;99.90;;;-3.16;100.00;101499.25;5004703;28;20038;-79
2021/12/22 09:19:34;;;;;;;41.53;23.73;;;-1.00;99.90;;;-3.09;100.00;101494.50;5006342;28;20073;-81
2021/12/22 09:22:03;;;;;;;37.05;20.80;;;-1.00;99.90;;;-2.98;100.00;101504.66;5006494;28;20046;-78
2021/12/22 09:24:30;;;;;;;37.17;19.63;;;-0.90;99.90;;;-2.88;100.00;101502.41;5005011;28;20145;-80
2021/12/22 09:26:58;;;;;;;33.70;19.48;;;-0.80;99.90;;;-2.82;100.00;101499.44;5005394;28;20149;-80
2021/12/22 09:29:26;;;;;;;37.10;19.20;;;-0.80;99.90;;;-2.77;100.00;101494.75;5013768;28;20108;-80
2021/12/22 09:31:54;;;;;;;36.22;19.75;;;-0.80;99.90;;;-2.73;100.00;101492.81;5011426;28;20600;-77
2021/12/22 09:34:21;;;;;;;40.33;19.30;;;-0.70;99.90;;;-2.67;100.00;101496.03;5010647;28;20054;-78
2021/12/22 09:36:48;;;;;;;33.97;18.40;;;-0.70;99.90;;;-2.61;100.00;101493.06;5011332;28;20085;-77
2021/12/22 09:39:17;;;;;;;34.45;18.92;;;-0.60;99.90;;;-2.55;100.00;101497.25;5009815;28;20049;-79
2021/12/22 09:41:44;;;;;;;35.05;18.58;;;-0.60;99.90;;;-2.52;100.00;101499.75;5010434;28;20096;-79
2021/12/22 09:44:12;;;;;;;36.92;17.77;;;-0.50;99.90;;;-2.46;100.00;101494.09;5008799;28;20045;-77
2021/12/22 09:46:40;;;;;;;30.67;17.05;;;-0.50;99.90;;;-2.45;100.00;101495.84;5009257;28;20096;-87
2021/12/22 09:49:20;;;;;;;37.95;17.35;;;-0.50;99.90;;;-2.38;100.00;101493.72;4993084;28;20042;-79
2021/12/22 09:54:35;;;;;;;32.42;16.48;;;-0.40;99.90;;;-2.29;100.00;101479.06;4993023;28;20474;-80
2021/12/22 09:57:02;;;;;;;28.50;15.75;;;-0.30;99.90;;;-2.24;100.00;101480.56;5009453;28;20050;-80
2021/12/22 09:59:31;;;;;;;27.90;14.75;;;-0.30;99.90;;;-2.16;100.00;101482.81;5010020;28;20084;-80
2021/12/22 10:01:58;;;;;;;28.50;15.30;;;-0.20;99.90;;;-2.10;100.00;101489.66;5008389;28;20121;-80
2021/12/22 10:04:25;;;;;;;23.40;13.57;;;-0.20;99.90;;;-2.04;100.00;101490.19;5010290;28;20473;-80
2021/12/22 10:06:53;;;;;;;24.73;15.18;;;-0.10;99.90;;;-1.97;100.00;101491.59;5009921;28;20050;-80
2021/12/22 10:09:24;;;;;;;25.90;13.88;;;0.00;99.90;;;-1.86;100.00;101476.84;5010841;28;20100;-79